createdAt,value
2023-05-19T00:01:19.197Z,71.65
2023-05-19T00:06:25.129Z,71.58
2023-05-19T00:11:29.217Z,72.22
2023-05-19T00:16:32.673Z,71.88
2023-05-19T00:21:38.290Z,72.25
2023-05-19T00:26:41.510Z,72.40
2023-05-19T00:31:44.856Z,72.80
2023-05-19T00:36:47.941Z,72.84
2023-05-19T00:41:51.349Z,73.11
2023-05-19T00:46:54.357Z,73.82
2023-05-19T00:51:58.411Z,74.06
2023-05-19T00:57:01.558Z,74.49
2023-05-19T01:02:04.911Z,74.96
2023-05-19T01:07:08.389Z,75.21
2023-05-19T01:12:11.642Z,76.06
2023-05-19T01:17:34.678Z,76.60
2023-05-19T01:23:08.752Z,77.02
2023-05-19T01:28:30.806Z,76.94
2023-05-19T01:33:34.812Z,77.33
2023-05-19T01:38:39.311Z,78.33
2023-05-19T01:43:43.082Z,78.51
2023-05-19T01:48:47.138Z,78.97
2023-05-19T01:53:50.246Z,78.75
2023-05-19T01:59:04.333Z,78.35
2023-05-19T02:04:10.216Z,78.14
2023-05-19T02:09:41.257Z,78.44
2023-05-19T02:14:58.798Z,78.55
2023-05-19T02:20:02.652Z,78.60
2023-05-19T02:25:06.137Z,78.76
2023-05-19T02:30:10.164Z,79.05
2023-05-19T02:35:13.863Z,79.26
2023-05-19T02:40:18.768Z,79.50
2023-05-19T02:45:21.749Z,79.71
2023-05-19T02:50:24.754Z,80.10
2023-05-19T02:55:27.764Z,80.72
2023-05-19T03:00:30.898Z,81.39
2023-05-19T03:05:34.090Z,81.67
2023-05-19T03:10:37.099Z,82.03
2023-05-19T03:15:40.093Z,81.95
2023-05-19T03:20:44.770Z,82.17
2023-05-19T03:25:48.064Z,82.73
2023-05-19T03:30:51.126Z,83.05
2023-05-19T03:35:54.173Z,83.24
2023-05-19T03:40:57.180Z,83.40
2023-05-19T03:46:00.353Z,83.20
2023-05-19T03:51:04.731Z,83.25
2023-05-19T03:56:08.371Z,82.92
2023-05-19T04:01:11.821Z,82.53
2023-05-19T04:06:15.295Z,82.80
2023-05-19T04:11:20.239Z,82.55
2023-05-19T04:16:23.443Z,82.87
2023-05-19T04:21:26.761Z,82.98
2023-05-19T04:26:31.242Z,83.16
2023-05-19T04:31:36.117Z,82.92
2023-05-19T04:36:39.266Z,82.68
2023-05-19T04:41:44.835Z,82.56
2023-05-19T04:46:47.983Z,82.68
2023-05-19T04:51:54.101Z,82.61
2023-05-19T04:56:58.695Z,82.36
2023-05-19T05:02:01.822Z,81.87
2023-05-19T05:07:05.854Z,81.59
2023-05-19T05:12:09.622Z,81.08
2023-05-19T05:17:13.922Z,80.57
2023-05-19T05:22:17.827Z,80.20
2023-05-19T05:27:21.111Z,79.79
2023-05-19T05:32:24.824Z,79.49
2023-05-19T05:37:28.359Z,78.61
2023-05-19T05:42:31.554Z,77.85
2023-05-19T05:47:38.161Z,77.35
2023-05-19T05:52:42.683Z,77.25
2023-05-19T05:57:46.015Z,76.53
2023-05-19T06:02:50.954Z,76.29
2023-05-19T06:07:54.469Z,75.58
2023-05-19T06:12:57.922Z,74.88
2023-05-19T06:18:01.577Z,74.55
2023-05-19T06:23:05.242Z,74.33
2023-05-19T06:28:08.452Z,74.41
2023-05-19T06:33:11.557Z,73.77
2023-05-19T06:38:14.670Z,72.29
2023-05-19T06:43:18.187Z,71.36
2023-05-19T06:48:21.699Z,70.58
2023-05-19T06:53:24.708Z,70.45
2023-05-19T06:58:28.132Z,70.25
2023-05-19T07:03:31.563Z,68.72
2023-05-19T07:08:35.474Z,67.54
2023-05-19T07:13:38.684Z,66.10
2023-05-19T07:18:41.757Z,65.07
2023-05-19T07:23:45.013Z,65.31
2023-05-19T07:28:48.115Z,63.97
2023-05-19T07:33:54.372Z,63.93
2023-05-19T07:38:57.958Z,64.11
2023-05-19T07:44:01.029Z,63.65
2023-05-19T07:49:04.746Z,64.37
2023-05-19T07:54:08.678Z,64.52
2023-05-19T07:59:11.884Z,64.32
2023-05-19T08:04:15.070Z,64.15
2023-05-19T08:09:18.970Z,63.09
2023-05-19T08:14:23.060Z,62.20
2023-05-19T08:19:27.153Z,61.79
2023-05-19T08:24:30.505Z,61.36
2023-05-19T08:29:33.614Z,60.34
2023-05-19T08:34:36.618Z,59.58
2023-05-19T08:39:40.044Z,60.70
2023-05-19T08:44:44.268Z,60.47
2023-05-19T08:49:51.885Z,60.10
2023-05-19T09:00:13.265Z,59.09
2023-05-19T09:05:17.967Z,58.66
2023-05-19T09:10:21.205Z,58.23
2023-05-19T09:15:28.110Z,57.40
2023-05-19T09:20:31.734Z,56.73
2023-05-19T09:25:35.112Z,55.62
2023-05-19T09:30:39.587Z,55.93
2023-05-19T09:35:47.303Z,56.34
2023-05-19T09:40:50.408Z,56.13
2023-05-19T09:46:12.191Z,56.16
2023-05-19T09:51:17.849Z,56.41
2023-05-19T09:56:24.110Z,55.72
2023-05-19T10:01:27.457Z,55.49
2023-05-19T10:06:31.353Z,54.67
2023-05-19T10:11:34.664Z,54.69
2023-05-19T10:16:38.947Z,55.60
2023-05-19T10:21:42.008Z,55.94
2023-05-19T10:26:49.829Z,56.42
2023-05-19T10:31:55.937Z,56.20
2023-05-19T10:37:12.222Z,57.91
2023-05-19T10:42:35.960Z,59.45
2023-05-19T10:47:41.658Z,60.40
2023-05-19T10:52:45.022Z,61.13
2023-05-19T10:57:56.931Z,62.99
2023-05-19T11:03:17.031Z,64.37
2023-05-19T11:08:32.887Z,65.78
2023-05-19T11:13:36.760Z,67.33
2023-05-19T11:18:40.007Z,68.92
2023-05-19T11:23:44.288Z,69.41
2023-05-19T11:28:48.324Z,69.89
2023-05-19T11:33:51.566Z,70.07
2023-05-19T11:38:55.280Z,70.72
2023-05-19T11:43:58.294Z,69.88
2023-05-19T11:49:02.620Z,70.87
2023-05-19T11:54:05.626Z,71.68
2023-05-19T11:59:09.960Z,70.56
2023-05-19T12:04:12.972Z,71.16
2023-05-19T12:09:16.284Z,71.09
2023-05-19T12:14:19.595Z,72.17
2023-05-19T12:19:26.482Z,73.00
2023-05-19T12:24:29.822Z,75.16
2023-05-19T12:29:33.231Z,75.75
2023-05-19T12:34:39.923Z,77.24
2023-05-19T12:39:43.448Z,77.71
2023-05-19T12:44:54.020Z,77.82
2023-05-19T12:50:00.487Z,77.99
2023-05-19T12:55:06.710Z,78.74
2023-05-19T13:00:21.807Z,79.03
2023-05-19T13:05:25.093Z,79.34
2023-05-19T13:10:29.057Z,79.77
2023-05-19T13:15:37.766Z,80.61
2023-05-19T13:20:42.391Z,80.47
2023-05-19T13:25:45.533Z,80.80
2023-05-19T13:30:49.932Z,79.94
2023-05-19T13:35:53.475Z,78.23
2023-05-19T13:40:56.585Z,75.96
2023-05-19T13:45:59.628Z,73.80
2023-05-19T13:51:04.925Z,73.18
2023-05-19T13:56:08.515Z,73.74
2023-05-19T14:01:11.612Z,73.37
2023-05-19T14:06:14.899Z,74.13
2023-05-19T14:11:20.172Z,74.54
2023-05-19T14:16:23.374Z,75.19
2023-05-19T14:21:27.698Z,75.42
2023-05-19T14:26:31.121Z,75.03
2023-05-19T14:31:35.369Z,74.11
2023-05-19T14:36:38.505Z,73.33
2023-05-19T14:41:41.677Z,72.70
2023-05-19T14:46:44.859Z,73.29
2023-05-19T14:51:48.092Z,73.45
2023-05-19T14:56:51.002Z,73.32
2023-05-19T15:01:54.110Z,72.73
2023-05-19T15:12:08.828Z,71.85
2023-05-19T15:17:11.887Z,72.86
2023-05-19T15:22:15.045Z,73.91
2023-05-19T15:27:18.153Z,74.62
2023-05-19T15:32:21.261Z,75.20
2023-05-19T15:37:24.332Z,75.18
2023-05-19T15:42:27.196Z,74.71
2023-05-19T15:47:30.307Z,74.12
2023-05-19T15:52:33.506Z,74.21
2023-05-19T15:57:36.540Z,74.32
2023-05-19T16:02:39.758Z,74.23
2023-05-19T16:07:43.127Z,74.22
2023-05-19T16:12:46.344Z,74.34
2023-05-19T16:17:49.376Z,74.28
2023-05-19T16:22:52.757Z,74.51
2023-05-19T16:27:55.974Z,74.21
2023-05-19T16:32:59.093Z,74.42
2023-05-19T16:38:02.397Z,74.67
2023-05-19T16:43:05.609Z,75.00
2023-05-19T16:48:08.761Z,75.21
2023-05-19T16:53:11.928Z,75.67
2023-05-19T16:58:15.143Z,75.88
2023-05-19T17:03:18.490Z,76.10
2023-05-19T17:08:21.461Z,76.36
2023-05-19T17:13:24.563Z,76.66
2023-05-19T17:18:27.675Z,76.93
2023-05-19T17:23:30.789Z,77.05
2023-05-19T17:28:33.789Z,77.45
2023-05-19T17:33:37.046Z,77.36
2023-05-19T17:38:40.724Z,77.62
2023-05-19T17:43:43.836Z,78.03
2023-05-19T17:48:46.948Z,78.08
2023-05-19T17:53:50.455Z,78.42
2023-05-19T17:58:54.081Z,78.62
2023-05-19T18:03:57.879Z,78.62
2023-05-19T18:09:03.576Z,79.22
2023-05-19T18:14:06.691Z,79.47
2023-05-19T18:19:09.832Z,79.66
2023-05-19T18:24:13.002Z,80.38
2023-05-19T18:29:16.217Z,80.71
2023-05-19T18:34:19.328Z,81.28
2023-05-19T18:39:22.535Z,81.62
2023-05-19T18:44:25.846Z,82.30
2023-05-19T18:49:28.855Z,82.79
2023-05-19T18:54:32.820Z,83.28
2023-05-19T18:59:35.994Z,83.57
2023-05-19T19:04:39.146Z,83.75
2023-05-19T19:09:43.963Z,84.31
2023-05-19T19:14:47.381Z,84.09
2023-05-19T19:19:50.576Z,84.19
2023-05-19T19:24:53.791Z,84.73
2023-05-19T19:30:00.198Z,85.81
2023-05-19T19:35:03.629Z,87.14
2023-05-19T19:40:07.308Z,88.09
2023-05-19T19:45:12.552Z,89.87
2023-05-19T19:50:18.759Z,90.38
2023-05-19T19:55:21.949Z,91.00
2023-05-19T20:00:25.199Z,92.41
2023-05-19T20:05:28.395Z,93.76
2023-05-19T20:10:31.810Z,94.49
2023-05-19T20:15:35.021Z,95.01
2023-05-19T20:20:39.591Z,95.30
2023-05-19T20:25:54.807Z,95.63
2023-05-19T20:31:06.511Z,96.54
2023-05-19T20:36:11.147Z,96.38
2023-05-19T20:41:15.049Z,96.57
2023-05-19T20:46:18.215Z,97.46
2023-05-19T20:51:22.595Z,98.23
2023-05-19T20:56:25.701Z,98.24
2023-05-19T21:01:30.199Z,98.39
2023-05-19T21:06:33.976Z,99.04
2023-05-19T21:11:37.284Z,99.00
2023-05-19T21:16:42.707Z,99.45
2023-05-19T21:21:47.392Z,99.69
2023-05-19T21:26:51.626Z,99.95
2023-05-19T21:31:56.472Z,100.00
2023-05-19T21:36:59.481Z,99.76
2023-05-19T21:42:03.232Z,99.90
2023-05-19T21:47:06.824Z,100.00
2023-05-19T21:52:10.243Z,99.98
2023-05-19T21:57:13.247Z,100.00
2023-05-19T22:02:16.620Z,99.94
2023-05-19T22:07:27.081Z,100.00
2023-05-19T22:12:32.239Z,100.00
2023-05-19T22:17:35.289Z,100.00
2023-05-19T22:22:38.322Z,100.00
2023-05-19T22:27:41.317Z,100.00
2023-05-19T22:32:44.344Z,100.00
2023-05-19T22:37:47.441Z,100.00
2023-05-19T22:42:50.648Z,100.00
2023-05-19T22:47:55.500Z,100.00
2023-05-19T22:52:58.711Z,100.00
2023-05-19T22:58:01.713Z,100.00
2023-05-19T23:03:04.976Z,100.00
2023-05-19T23:08:08.137Z,100.00
2023-05-19T23:13:12.168Z,100.00
2023-05-19T23:18:15.394Z,100.00
2023-05-19T23:23:19.916Z,100.00
2023-05-19T23:28:22.928Z,100.00
2023-05-19T23:33:26.241Z,100.00
2023-05-19T23:38:29.348Z,100.00
2023-05-19T23:43:32.809Z,100.00
2023-05-19T23:48:36.816Z,100.00
2023-05-19T23:53:39.912Z,100.00
2023-05-19T23:58:43.136Z,100.00
